Amo, Indiana
Current Conditions -  °F | °C
As of 10:35 PM on Sunday 23 Nov 2014 (Local Time) from K4I7 Reporting Station
Light Rain Light Rain  
Wind Chill: 52°   Ceiling: 600
Heat Index: 52°   Visibility: 3mi
Dew Point: 52°   Wind: 6mph
Humidity: 100%   Direction: 170°S
Pressure: 29.18"   Gusts: NA
Location:  39.69°N, 86.61°W
Report Text: K4I7 240335Z AUTO 17005KT 3SM -RA BKN006 OVC014 11/11 A2918 RMK AO2 P0006
Loading
Personal Weather Stations






























Interactive Weather Map New forecast layout! Learn more

10-Day Weather Forecast

Advertisements
Track Severe Weather on mobile